Aviation Digital Data Service (ADDS)

Output produced by METARs form (2043 UTC 27 April 2015)
found at http://aviationweather.gov/adds/metars/
 
KERI 271938Z 2720/2818 32008KT P6SM SCT020 OVC050 
     TEMPO 2720/2721 BKN020 
     FM280900 32005KT 4SM BR BKN015 
     FM281400 34008KT P6SM BKN035